sensor_id;sensor_type;location;lat;lon;timestamp;P1;durP1;ratioP1;P2;durP2;ratioP2
8415;SDS011;4245;42.120;24.732;2023-02-28T00:01:06;19.33;;;8.13;;
8415;SDS011;4245;42.120;24.732;2023-02-28T00:03:32;17.33;;;7.67;;
8415;SDS011;4245;42.120;24.732;2023-02-28T00:06:00;16.77;;;7.33;;
8415;SDS011;4245;42.120;24.732;2023-02-28T00:08:28;22.47;;;7.73;;
8415;SDS011;4245;42.120;24.732;2023-02-28T00:10:54;20.53;;;7.90;;
8415;SDS011;4245;42.120;24.732;2023-02-28T00:13:23;18.17;;;7.77;;
8415;SDS011;4245;42.120;24.732;2023-02-28T00:15:58;20.03;;;7.80;;
8415;SDS011;4245;42.120;24.732;2023-02-28T00:18:25;17.03;;;8.00;;
8415;SDS011;4245;42.120;24.732;2023-02-28T00:20:52;24.60;;;7.73;;
8415;SDS011;4245;42.120;24.732;2023-02-28T00:23:19;16.90;;;7.40;;
8415;SDS011;4245;42.120;24.732;2023-02-28T00:25:45;24.00;;;9.13;;
8415;SDS011;4245;42.120;24.732;2023-02-28T00:28:12;16.60;;;7.43;;
8415;SDS011;4245;42.120;24.732;2023-02-28T00:30:40;25.93;;;8.00;;
8415;SDS011;4245;42.120;24.732;2023-02-28T00:33:07;21.17;;;8.20;;
8415;SDS011;4245;42.120;24.732;2023-02-28T00:35:34;24.03;;;7.70;;
8415;SDS011;4245;42.120;24.732;2023-02-28T00:38:01;18.83;;;7.63;;
8415;SDS011;4245;42.120;24.732;2023-02-28T00:40:28;20.93;;;8.03;;
8415;SDS011;4245;42.120;24.732;2023-02-28T00:42:55;17.27;;;7.67;;
8415;SDS011;4245;42.120;24.732;2023-02-28T00:45:22;15.40;;;7.30;;
8415;SDS011;4245;42.120;24.732;2023-02-28T00:47:50;20.63;;;8.50;;
8415;SDS011;4245;42.120;24.732;2023-02-28T00:50:17;25.13;;;8.13;;
8415;SDS011;4245;42.120;24.732;2023-02-28T00:52:46;20.63;;;7.90;;
8415;SDS011;4245;42.120;24.732;2023-02-28T00:55:13;17.17;;;7.67;;
8415;SDS011;4245;42.120;24.732;2023-02-28T00:57:40;19.30;;;8.07;;
8415;SDS011;4245;42.120;24.732;2023-02-28T01:00:07;16.17;;;7.77;;
8415;SDS011;4245;42.120;24.732;2023-02-28T01:02:35;19.07;;;7.97;;
8415;SDS011;4245;42.120;24.732;2023-02-28T01:05:03;21.83;;;7.90;;
8415;SDS011;4245;42.120;24.732;2023-02-28T01:07:31;20.00;;;7.30;;
8415;SDS011;4245;42.120;24.732;2023-02-28T01:09:57;14.13;;;7.33;;
8415;SDS011;4245;42.120;24.732;2023-02-28T01:12:24;20.70;;;8.10;;
8415;SDS011;4245;42.120;24.732;2023-02-28T01:14:51;18.43;;;7.83;;
8415;SDS011;4245;42.120;24.732;2023-02-28T01:17:18;21.63;;;8.43;;
8415;SDS011;4245;42.120;24.732;2023-02-28T01:19:44;16.90;;;8.33;;
8415;SDS011;4245;42.120;24.732;2023-02-28T01:22:13;21.83;;;9.13;;
8415;SDS011;4245;42.120;24.732;2023-02-28T01:24:39;17.57;;;8.83;;
8415;SDS011;4245;42.120;24.732;2023-02-28T01:27:06;19.13;;;9.30;;
8415;SDS011;4245;42.120;24.732;2023-02-28T01:29:33;25.43;;;9.83;;
8415;SDS011;4245;42.120;24.732;2023-02-28T01:32:00;16.50;;;8.97;;
8415;SDS011;4245;42.120;24.732;2023-02-28T01:34:27;21.57;;;9.40;;
8415;SDS011;4245;42.120;24.732;2023-02-28T01:36:53;27.73;;;9.23;;
8415;SDS011;4245;42.120;24.732;2023-02-28T01:39:22;21.63;;;8.97;;
8415;SDS011;4245;42.120;24.732;2023-02-28T01:41:48;21.90;;;10.20;;
8415;SDS011;4245;42.120;24.732;2023-02-28T01:47:19;20.23;;;8.87;;
8415;SDS011;4245;42.120;24.732;2023-02-28T01:49:46;20.90;;;9.63;;
8415;SDS011;4245;42.120;24.732;2023-02-28T01:52:14;19.03;;;9.70;;
8415;SDS011;4245;42.120;24.732;2023-02-28T01:54:44;20.13;;;9.43;;
8415;SDS011;4245;42.120;24.732;2023-02-28T01:57:16;19.43;;;9.67;;
8415;SDS011;4245;42.120;24.732;2023-02-28T01:59:47;21.97;;;10.43;;
8415;SDS011;4245;42.120;24.732;2023-02-28T02:02:18;26.70;;;9.67;;
8415;SDS011;4245;42.120;24.732;2023-02-28T02:04:50;21.30;;;9.83;;
8415;SDS011;4245;42.120;24.732;2023-02-28T02:07:19;22.80;;;9.83;;
8415;SDS011;4245;42.120;24.732;2023-02-28T02:09:48;19.83;;;10.07;;
8415;SDS011;4245;42.120;24.732;2023-02-28T02:12:18;25.13;;;9.23;;
8415;SDS011;4245;42.120;24.732;2023-02-28T02:14:59;19.30;;;9.43;;
8415;SDS011;4245;42.120;24.732;2023-02-28T02:17:34;22.20;;;9.63;;
8415;SDS011;4245;42.120;24.732;2023-02-28T02:20:28;20.83;;;9.00;;
8415;SDS011;4245;42.120;24.732;2023-02-28T02:32:35;28.57;;;10.13;;
8415;SDS011;4245;42.120;24.732;2023-02-28T02:35:15;24.50;;;10.20;;
8415;SDS011;4245;42.120;24.732;2023-02-28T02:37:48;20.73;;;10.70;;
8415;SDS011;4245;42.120;24.732;2023-02-28T02:40:19;22.33;;;9.27;;
8415;SDS011;4245;42.120;24.732;2023-02-28T02:42:50;22.37;;;9.87;;
8415;SDS011;4245;42.120;24.732;2023-02-28T02:45:23;20.13;;;9.10;;
8415;SDS011;4245;42.120;24.732;2023-02-28T02:47:53;21.33;;;8.97;;
8415;SDS011;4245;42.120;24.732;2023-02-28T02:50:25;18.53;;;8.77;;
8415;SDS011;4245;42.120;24.732;2023-02-28T02:52:57;16.37;;;9.97;;
8415;SDS011;4245;42.120;24.732;2023-02-28T02:55:27;20.20;;;9.73;;
8415;SDS011;4245;42.120;24.732;2023-02-28T02:57:57;33.63;;;17.17;;
8415;SDS011;4245;42.120;24.732;2023-02-28T03:00:29;32.87;;;15.93;;
8415;SDS011;4245;42.120;24.732;2023-02-28T03:02:59;25.57;;;14.33;;
8415;SDS011;4245;42.120;24.732;2023-02-28T03:05:29;21.63;;;11.67;;
8415;SDS011;4245;42.120;24.732;2023-02-28T03:08:02;20.10;;;10.00;;
8415;SDS011;4245;42.120;24.732;2023-02-28T03:10:34;18.87;;;9.83;;
8415;SDS011;4245;42.120;24.732;2023-02-28T03:16:11;17.20;;;9.87;;
8415;SDS011;4245;42.120;24.732;2023-02-28T03:18:52;21.27;;;9.63;;
8415;SDS011;4245;42.120;24.732;2023-02-28T03:21:27;18.27;;;9.67;;
8415;SDS011;4245;42.120;24.732;2023-02-28T03:24:02;19.77;;;10.63;;
8415;SDS011;4245;42.120;24.732;2023-02-28T03:26:33;17.43;;;10.27;;
8415;SDS011;4245;42.120;24.732;2023-02-28T03:29:07;20.67;;;10.13;;
8415;SDS011;4245;42.120;24.732;2023-02-28T03:31:43;18.83;;;9.93;;
8415;SDS011;4245;42.120;24.732;2023-02-28T03:34:16;18.57;;;10.57;;
8415;SDS011;4245;42.120;24.732;2023-02-28T03:36:50;21.37;;;11.27;;
8415;SDS011;4245;42.120;24.732;2023-02-28T03:39:20;22.23;;;11.57;;
8415;SDS011;4245;42.120;24.732;2023-02-28T03:41:51;20.00;;;10.70;;
8415;SDS011;4245;42.120;24.732;2023-02-28T03:44:24;25.40;;;11.17;;
8415;SDS011;4245;42.120;24.732;2023-02-28T03:46:56;23.40;;;11.77;;
8415;SDS011;4245;42.120;24.732;2023-02-28T03:49:28;18.63;;;10.93;;
8415;SDS011;4245;42.120;24.732;2023-02-28T03:52:00;21.13;;;10.80;;
8415;SDS011;4245;42.120;24.732;2023-02-28T03:54:29;20.13;;;10.70;;
8415;SDS011;4245;42.120;24.732;2023-02-28T03:56:59;24.23;;;10.17;;
8415;SDS011;4245;42.120;24.732;2023-02-28T03:59:30;17.33;;;10.40;;
8415;SDS011;4245;42.120;24.732;2023-02-28T04:02:01;21.23;;;10.80;;
8415;SDS011;4245;42.120;24.732;2023-02-28T04:04:28;19.97;;;9.80;;
8415;SDS011;4245;42.120;24.732;2023-02-28T04:07:02;15.97;;;9.90;;
8415;SDS011;4245;42.120;24.732;2023-02-28T04:09:30;22.07;;;10.20;;
8415;SDS011;4245;42.120;24.732;2023-02-28T04:11:57;22.13;;;10.33;;
8415;SDS011;4245;42.120;24.732;2023-02-28T04:14:24;18.60;;;10.03;;
8415;SDS011;4245;42.120;24.732;2023-02-28T04:16:51;21.63;;;10.23;;
8415;SDS011;4245;42.120;24.732;2023-02-28T04:19:18;19.37;;;9.97;;
8415;SDS011;4245;42.120;24.732;2023-02-28T04:21:46;17.40;;;9.60;;
8415;SDS011;4245;42.120;24.732;2023-02-28T04:24:16;20.53;;;10.03;;
8415;SDS011;4245;42.120;24.732;2023-02-28T04:26:45;19.23;;;9.83;;
8415;SDS011;4245;42.120;24.732;2023-02-28T04:29:13;20.63;;;10.10;;
8415;SDS011;4245;42.120;24.732;2023-02-28T04:31:44;22.43;;;9.50;;
8415;SDS011;4245;42.120;24.732;2023-02-28T04:34:11;16.10;;;9.17;;
8415;SDS011;4245;42.120;24.732;2023-02-28T04:36:38;17.33;;;9.80;;
8415;SDS011;4245;42.120;24.732;2023-02-28T04:39:05;16.17;;;9.63;;
8415;SDS011;4245;42.120;24.732;2023-02-28T04:41:33;19.67;;;10.50;;
8415;SDS011;4245;42.120;24.732;2023-02-28T04:44:00;16.47;;;10.40;;
8415;SDS011;4245;42.120;24.732;2023-02-28T04:46:27;17.20;;;10.20;;
8415;SDS011;4245;42.120;24.732;2023-02-28T04:48:53;16.97;;;9.53;;
8415;SDS011;4245;42.120;24.732;2023-02-28T04:51:20;21.47;;;9.73;;
8415;SDS011;4245;42.120;24.732;2023-02-28T04:53:47;17.37;;;9.83;;
8415;SDS011;4245;42.120;24.732;2023-02-28T04:56:15;16.17;;;9.87;;
8415;SDS011;4245;42.120;24.732;2023-02-28T04:58:44;17.97;;;10.60;;
8415;SDS011;4245;42.120;24.732;2023-02-28T05:01:16;18.63;;;10.23;;
8415;SDS011;4245;42.120;24.732;2023-02-28T05:03:44;18.43;;;10.23;;
8415;SDS011;4245;42.120;24.732;2023-02-28T05:06:12;23.60;;;11.90;;
8415;SDS011;4245;42.120;24.732;2023-02-28T05:08:39;20.53;;;9.77;;
8415;SDS011;4245;42.120;24.732;2023-02-28T05:11:08;25.63;;;12.07;;
8415;SDS011;4245;42.120;24.732;2023-02-28T05:13:40;18.20;;;10.40;;
8415;SDS011;4245;42.120;24.732;2023-02-28T05:16:08;18.87;;;9.63;;
8415;SDS011;4245;42.120;24.732;2023-02-28T05:18:35;17.47;;;9.50;;
8415;SDS011;4245;42.120;24.732;2023-02-28T05:21:02;17.30;;;9.63;;
8415;SDS011;4245;42.120;24.732;2023-02-28T05:23:29;20.93;;;9.80;;
8415;SDS011;4245;42.120;24.732;2023-02-28T05:25:56;19.60;;;10.20;;
8415;SDS011;4245;42.120;24.732;2023-02-28T05:28:23;17.10;;;9.77;;
8415;SDS011;4245;42.120;24.732;2023-02-28T05:30:49;17.90;;;10.67;;
8415;SDS011;4245;42.120;24.732;2023-02-28T05:33:18;18.97;;;9.97;;
8415;SDS011;4245;42.120;24.732;2023-02-28T05:35:45;18.30;;;9.60;;
8415;SDS011;4245;42.120;24.732;2023-02-28T05:38:11;16.87;;;10.00;;
8415;SDS011;4245;42.120;24.732;2023-02-28T05:40:38;15.90;;;9.63;;
8415;SDS011;4245;42.120;24.732;2023-02-28T05:43:05;31.57;;;10.33;;
8415;SDS011;4245;42.120;24.732;2023-02-28T05:45:34;20.77;;;10.77;;
8415;SDS011;4245;42.120;24.732;2023-02-28T05:48:01;24.13;;;11.00;;
8415;SDS011;4245;42.120;24.732;2023-02-28T05:50:29;19.87;;;10.90;;
8415;SDS011;4245;42.120;24.732;2023-02-28T05:52:56;18.67;;;11.37;;
8415;SDS011;4245;42.120;24.732;2023-02-28T05:55:23;23.77;;;11.50;;
8415;SDS011;4245;42.120;24.732;2023-02-28T05:57:50;21.17;;;11.67;;
8415;SDS011;4245;42.120;24.732;2023-02-28T06:00:17;21.00;;;10.97;;
8415;SDS011;4245;42.120;24.732;2023-02-28T06:02:44;19.50;;;11.17;;
8415;SDS011;4245;42.120;24.732;2023-02-28T06:05:13;18.80;;;10.80;;
8415;SDS011;4245;42.120;24.732;2023-02-28T06:07:42;21.87;;;12.17;;
8415;SDS011;4245;42.120;24.732;2023-02-28T06:10:09;19.47;;;11.90;;
8415;SDS011;4245;42.120;24.732;2023-02-28T06:12:37;23.23;;;10.93;;
8415;SDS011;4245;42.120;24.732;2023-02-28T06:15:04;19.43;;;10.27;;
8415;SDS011;4245;42.120;24.732;2023-02-28T06:17:32;21.83;;;11.23;;
8415;SDS011;4245;42.120;24.732;2023-02-28T06:19:58;21.20;;;11.87;;
8415;SDS011;4245;42.120;24.732;2023-02-28T06:22:25;19.20;;;11.33;;
8415;SDS011;4245;42.120;24.732;2023-02-28T06:24:53;22.00;;;11.97;;
8415;SDS011;4245;42.120;24.732;2023-02-28T06:27:22;17.77;;;11.40;;
8415;SDS011;4245;42.120;24.732;2023-02-28T06:29:48;18.30;;;11.17;;
8415;SDS011;4245;42.120;24.732;2023-02-28T06:32:19;20.83;;;11.07;;
8415;SDS011;4245;42.120;24.732;2023-02-28T06:34:46;22.40;;;11.10;;
8415;SDS011;4245;42.120;24.732;2023-02-28T06:37:13;18.33;;;11.07;;
8415;SDS011;4245;42.120;24.732;2023-02-28T06:39:39;20.40;;;10.60;;
8415;SDS011;4245;42.120;24.732;2023-02-28T06:42:08;23.90;;;11.23;;
8415;SDS011;4245;42.120;24.732;2023-02-28T06:44:35;19.30;;;11.80;;
8415;SDS011;4245;42.120;24.732;2023-02-28T06:47:02;23.10;;;12.30;;
8415;SDS011;4245;42.120;24.732;2023-02-28T06:49:30;22.33;;;11.90;;
8415;SDS011;4245;42.120;24.732;2023-02-28T06:51:57;22.30;;;12.13;;
8415;SDS011;4245;42.120;24.732;2023-02-28T06:54:24;20.67;;;11.77;;
8415;SDS011;4245;42.120;24.732;2023-02-28T06:56:51;20.23;;;10.67;;
8415;SDS011;4245;42.120;24.732;2023-02-28T06:59:20;25.30;;;12.13;;
8415;SDS011;4245;42.120;24.732;2023-02-28T07:01:47;21.40;;;11.80;;
8415;SDS011;4245;42.120;24.732;2023-02-28T07:04:14;22.10;;;11.43;;
8415;SDS011;4245;42.120;24.732;2023-02-28T07:06:41;21.00;;;10.83;;
8415;SDS011;4245;42.120;24.732;2023-02-28T07:09:07;20.90;;;11.83;;
8415;SDS011;4245;42.120;24.732;2023-02-28T07:11:35;20.90;;;11.20;;
8415;SDS011;4245;42.120;24.732;2023-02-28T07:14:02;20.83;;;12.20;;
8415;SDS011;4245;42.120;24.732;2023-02-28T07:16:30;23.07;;;11.90;;
8415;SDS011;4245;42.120;24.732;2023-02-28T07:18:57;22.67;;;11.67;;
8415;SDS011;4245;42.120;24.732;2023-02-28T07:21:24;22.90;;;11.17;;
8415;SDS011;4245;42.120;24.732;2023-02-28T07:23:51;17.80;;;11.10;;
8415;SDS011;4245;42.120;24.732;2023-02-28T07:26:19;19.87;;;11.80;;
8415;SDS011;4245;42.120;24.732;2023-02-28T07:28:47;29.50;;;11.53;;
8415;SDS011;4245;42.120;24.732;2023-02-28T07:31:14;19.93;;;10.97;;
8415;SDS011;4245;42.120;24.732;2023-02-28T07:33:43;20.10;;;10.47;;
8415;SDS011;4245;42.120;24.732;2023-02-28T07:36:11;16.90;;;9.17;;
8415;SDS011;4245;42.120;24.732;2023-02-28T07:38:40;21.30;;;10.60;;
8415;SDS011;4245;42.120;24.732;2023-02-28T07:41:07;21.20;;;11.20;;
8415;SDS011;4245;42.120;24.732;2023-02-28T07:43:34;18.33;;;10.63;;
8415;SDS011;4245;42.120;24.732;2023-02-28T07:46:02;20.67;;;10.97;;
8415;SDS011;4245;42.120;24.732;2023-02-28T07:48:29;19.07;;;11.60;;
8415;SDS011;4245;42.120;24.732;2023-02-28T07:50:58;22.50;;;12.60;;
8415;SDS011;4245;42.120;24.732;2023-02-28T07:53:25;24.17;;;13.30;;
8415;SDS011;4245;42.120;24.732;2023-02-28T07:55:54;22.23;;;13.50;;
8415;SDS011;4245;42.120;24.732;2023-02-28T07:58:22;30.30;;;16.80;;
8415;SDS011;4245;42.120;24.732;2023-02-28T08:00:49;29.00;;;15.60;;
8415;SDS011;4245;42.120;24.732;2023-02-28T08:03:16;25.57;;;14.47;;
8415;SDS011;4245;42.120;24.732;2023-02-28T08:05:44;26.40;;;14.40;;
8415;SDS011;4245;42.120;24.732;2023-02-28T08:08:12;26.53;;;14.93;;
8415;SDS011;4245;42.120;24.732;2023-02-28T08:10:39;24.37;;;14.40;;
8415;SDS011;4245;42.120;24.732;2023-02-28T08:13:06;32.23;;;15.00;;
8415;SDS011;4245;42.120;24.732;2023-02-28T08:15:33;27.53;;;14.20;;
8415;SDS011;4245;42.120;24.732;2023-02-28T08:18:01;23.83;;;13.77;;
8415;SDS011;4245;42.120;24.732;2023-02-28T08:20:28;27.70;;;14.73;;
8415;SDS011;4245;42.120;24.732;2023-02-28T08:22:55;28.40;;;14.50;;
8415;SDS011;4245;42.120;24.732;2023-02-28T08:25:24;27.23;;;15.40;;
8415;SDS011;4245;42.120;24.732;2023-02-28T08:27:51;33.83;;;16.87;;
8415;SDS011;4245;42.120;24.732;2023-02-28T08:30:18;33.83;;;16.63;;
8415;SDS011;4245;42.120;24.732;2023-02-28T08:32:45;37.87;;;14.60;;
8415;SDS011;4245;42.120;24.732;2023-02-28T08:35:12;26.23;;;14.40;;
8415;SDS011;4245;42.120;24.732;2023-02-28T08:37:39;31.00;;;14.10;;
8415;SDS011;4245;42.120;24.732;2023-02-28T08:40:06;27.13;;;14.33;;
8415;SDS011;4245;42.120;24.732;2023-02-28T08:42:35;24.10;;;12.97;;
8415;SDS011;4245;42.120;24.732;2023-02-28T08:45:02;22.60;;;13.47;;
8415;SDS011;4245;42.120;24.732;2023-02-28T08:47:30;28.17;;;15.77;;
8415;SDS011;4245;42.120;24.732;2023-02-28T08:49:57;30.40;;;15.30;;
8415;SDS011;4245;42.120;24.732;2023-02-28T08:52:23;30.30;;;16.43;;
8415;SDS011;4245;42.120;24.732;2023-02-28T08:54:50;27.57;;;15.00;;
8415;SDS011;4245;42.120;24.732;2023-02-28T08:57:17;25.60;;;14.97;;
8415;SDS011;4245;42.120;24.732;2023-02-28T08:59:45;35.13;;;17.50;;
8415;SDS011;4245;42.120;24.732;2023-02-28T09:02:12;27.63;;;17.17;;
8415;SDS011;4245;42.120;24.732;2023-02-28T09:04:40;27.40;;;15.57;;
8415;SDS011;4245;42.120;24.732;2023-02-28T09:07:07;29.73;;;16.33;;
8415;SDS011;4245;42.120;24.732;2023-02-28T09:09:34;32.63;;;17.00;;
8415;SDS011;4245;42.120;24.732;2023-02-28T09:12:00;37.20;;;18.43;;
8415;SDS011;4245;42.120;24.732;2023-02-28T09:14:28;30.40;;;17.17;;
8415;SDS011;4245;42.120;24.732;2023-02-28T09:16:56;27.83;;;15.63;;
8415;SDS011;4245;42.120;24.732;2023-02-28T09:19:24;28.73;;;16.27;;
8415;SDS011;4245;42.120;24.732;2023-02-28T09:21:51;39.10;;;20.93;;
8415;SDS011;4245;42.120;24.732;2023-02-28T09:24:17;27.93;;;17.50;;
8415;SDS011;4245;42.120;24.732;2023-02-28T09:26:45;31.83;;;18.07;;
8415;SDS011;4245;42.120;24.732;2023-02-28T09:29:12;33.40;;;18.33;;
8415;SDS011;4245;42.120;24.732;2023-02-28T09:31:39;34.70;;;20.10;;
8415;SDS011;4245;42.120;24.732;2023-02-28T09:34:07;31.43;;;19.83;;
8415;SDS011;4245;42.120;24.732;2023-02-28T09:36:34;31.03;;;18.63;;
8415;SDS011;4245;42.120;24.732;2023-02-28T09:39:03;28.57;;;18.57;;
8415;SDS011;4245;42.120;24.732;2023-02-28T09:41:32;31.77;;;17.30;;
8415;SDS011;4245;42.120;24.732;2023-02-28T09:44:13;36.70;;;19.53;;
8415;SDS011;4245;42.120;24.732;2023-02-28T09:46:46;38.10;;;18.87;;
8415;SDS011;4245;42.120;24.732;2023-02-28T09:49:19;31.50;;;18.50;;
8415;SDS011;4245;42.120;24.732;2023-02-28T09:51:53;32.10;;;18.33;;
8415;SDS011;4245;42.120;24.732;2023-02-28T09:54:24;31.17;;;17.93;;
8415;SDS011;4245;42.120;24.732;2023-02-28T09:56:55;25.67;;;16.57;;
8415;SDS011;4245;42.120;24.732;2023-02-28T09:59:29;30.90;;;17.30;;
8415;SDS011;4245;42.120;24.732;2023-02-28T10:02:10;34.93;;;18.40;;
8415;SDS011;4245;42.120;24.732;2023-02-28T10:04:48;26.43;;;16.87;;
8415;SDS011;4245;42.120;24.732;2023-02-28T10:07:27;28.40;;;17.50;;
8415;SDS011;4245;42.120;24.732;2023-02-28T10:10:06;28.80;;;16.90;;
8415;SDS011;4245;42.120;24.732;2023-02-28T10:12:44;31.03;;;18.30;;
8415;SDS011;4245;42.120;24.732;2023-02-28T10:15:13;30.97;;;17.50;;
8415;SDS011;4245;42.120;24.732;2023-02-28T10:17:43;34.10;;;18.07;;
8415;SDS011;4245;42.120;24.732;2023-02-28T10:20:15;31.77;;;17.70;;
8415;SDS011;4245;42.120;24.732;2023-02-28T10:22:51;34.03;;;18.17;;
8415;SDS011;4245;42.120;24.732;2023-02-28T10:25:24;39.30;;;21.53;;
8415;SDS011;4245;42.120;24.732;2023-02-28T10:27:53;31.10;;;18.93;;
8415;SDS011;4245;42.120;24.732;2023-02-28T10:30:20;27.57;;;17.90;;
8415;SDS011;4245;42.120;24.732;2023-02-28T10:32:49;30.17;;;17.77;;
8415;SDS011;4245;42.120;24.732;2023-02-28T10:35:20;28.92;;;19.85;;
8415;SDS011;4245;42.120;24.732;2023-02-28T10:37:49;39.63;;;19.70;;
8415;SDS011;4245;42.120;24.732;2023-02-28T10:40:30;27.70;;;17.57;;
8415;SDS011;4245;42.120;24.732;2023-02-28T10:43:01;31.30;;;18.80;;
8415;SDS011;4245;42.120;24.732;2023-02-28T10:45:30;30.27;;;18.83;;
8415;SDS011;4245;42.120;24.732;2023-02-28T10:48:00;28.70;;;19.07;;
8415;SDS011;4245;42.120;24.732;2023-02-28T10:50:35;29.70;;;19.57;;
8415;SDS011;4245;42.120;24.732;2023-02-28T10:53:14;31.27;;;19.00;;
8415;SDS011;4245;42.120;24.732;2023-02-28T10:55:55;34.33;;;19.40;;
8415;SDS011;4245;42.120;24.732;2023-02-28T10:58:24;30.97;;;18.80;;
8415;SDS011;4245;42.120;24.732;2023-02-28T11:00:52;32.47;;;20.77;;
8415;SDS011;4245;42.120;24.732;2023-02-28T11:03:24;30.30;;;18.60;;
8415;SDS011;4245;42.120;24.732;2023-02-28T11:06:03;33.07;;;19.07;;
8415;SDS011;4245;42.120;24.732;2023-02-28T11:08:33;37.30;;;20.27;;
8415;SDS011;4245;42.120;24.732;2023-02-28T11:11:03;37.47;;;20.77;;
8415;SDS011;4245;42.120;24.732;2023-02-28T11:13:33;39.53;;;20.70;;
8415;SDS011;4245;42.120;24.732;2023-02-28T11:16:03;37.03;;;19.87;;
8415;SDS011;4245;42.120;24.732;2023-02-28T11:18:34;33.43;;;18.80;;
8415;SDS011;4245;42.120;24.732;2023-02-28T11:21:08;32.70;;;19.73;;
8415;SDS011;4245;42.120;24.732;2023-02-28T11:23:41;37.97;;;19.73;;
8415;SDS011;4245;42.120;24.732;2023-02-28T11:26:08;32.73;;;19.70;;
8415;SDS011;4245;42.120;24.732;2023-02-28T11:28:37;33.90;;;19.53;;
8415;SDS011;4245;42.120;24.732;2023-02-28T11:31:06;36.73;;;19.83;;
8415;SDS011;4245;42.120;24.732;2023-02-28T11:33:45;38.40;;;20.00;;
8415;SDS011;4245;42.120;24.732;2023-02-28T11:36:18;38.80;;;21.13;;
8415;SDS011;4245;42.120;24.732;2023-02-28T11:38:49;65.67;;;37.37;;
8415;SDS011;4245;42.120;24.732;2023-02-28T11:41:23;39.60;;;23.87;;
8415;SDS011;4245;42.120;24.732;2023-02-28T11:44:05;46.10;;;22.93;;
8415;SDS011;4245;42.120;24.732;2023-02-28T11:46:47;33.87;;;20.03;;
8415;SDS011;4245;42.120;24.732;2023-02-28T11:49:23;43.27;;;20.27;;
8415;SDS011;4245;42.120;24.732;2023-02-28T11:52:04;33.87;;;20.60;;
8415;SDS011;4245;42.120;24.732;2023-02-28T11:54:53;38.50;;;20.13;;
8415;SDS011;4245;42.120;24.732;2023-02-28T11:57:48;29.67;;;19.63;;
8415;SDS011;4245;42.120;24.732;2023-02-28T12:00:38;34.73;;;20.00;;
8415;SDS011;4245;42.120;24.732;2023-02-28T12:03:15;34.83;;;20.73;;
8415;SDS011;4245;42.120;24.732;2023-02-28T12:05:54;34.57;;;21.73;;
8415;SDS011;4245;42.120;24.732;2023-02-28T12:08:39;44.77;;;22.47;;
8415;SDS011;4245;42.120;24.732;2023-02-28T12:11:15;36.73;;;21.87;;
8415;SDS011;4245;42.120;24.732;2023-02-28T12:13:52;45.77;;;23.90;;
8415;SDS011;4245;42.120;24.732;2023-02-28T12:16:37;45.87;;;26.30;;
8415;SDS011;4245;42.120;24.732;2023-02-28T12:19:17;44.10;;;23.43;;
8415;SDS011;4245;42.120;24.732;2023-02-28T12:21:55;41.50;;;23.23;;
8415;SDS011;4245;42.120;24.732;2023-02-28T12:24:48;38.93;;;23.07;;
8415;SDS011;4245;42.120;24.732;2023-02-28T12:27:37;36.87;;;22.87;;
8415;SDS011;4245;42.120;24.732;2023-02-28T12:30:12;42.07;;;23.43;;
8415;SDS011;4245;42.120;24.732;2023-02-28T12:32:43;39.57;;;24.27;;
8415;SDS011;4245;42.120;24.732;2023-02-28T12:35:14;40.97;;;25.03;;
8415;SDS011;4245;42.120;24.732;2023-02-28T12:37:46;40.20;;;24.53;;
8415;SDS011;4245;42.120;24.732;2023-02-28T12:40:20;36.73;;;21.93;;
8415;SDS011;4245;42.120;24.732;2023-02-28T12:42:49;35.10;;;21.43;;
8415;SDS011;4245;42.120;24.732;2023-02-28T12:45:19;36.83;;;21.97;;
8415;SDS011;4245;42.120;24.732;2023-02-28T12:47:49;40.40;;;21.83;;
8415;SDS011;4245;42.120;24.732;2023-02-28T12:50:22;41.73;;;23.67;;
8415;SDS011;4245;42.120;24.732;2023-02-28T12:52:52;42.83;;;23.37;;
8415;SDS011;4245;42.120;24.732;2023-02-28T12:55:26;44.47;;;23.20;;
8415;SDS011;4245;42.120;24.732;2023-02-28T12:58:00;51.43;;;24.43;;
8415;SDS011;4245;42.120;24.732;2023-02-28T13:00:35;41.83;;;23.23;;
8415;SDS011;4245;42.120;24.732;2023-02-28T13:03:18;38.87;;;23.83;;
8415;SDS011;4245;42.120;24.732;2023-02-28T13:06:14;40.63;;;23.57;;
8415;SDS011;4245;42.120;24.732;2023-02-28T13:08:53;42.93;;;22.93;;
8415;SDS011;4245;42.120;24.732;2023-02-28T13:11:33;40.93;;;21.63;;
8415;SDS011;4245;42.120;24.732;2023-02-28T13:14:06;35.27;;;21.83;;
8415;SDS011;4245;42.120;24.732;2023-02-28T13:16:56;40.93;;;21.67;;
8415;SDS011;4245;42.120;24.732;2023-02-28T13:19:28;48.70;;;23.67;;
8415;SDS011;4245;42.120;24.732;2023-02-28T13:21:57;40.07;;;23.97;;
8415;SDS011;4245;42.120;24.732;2023-02-28T13:24:36;45.30;;;26.20;;
8415;SDS011;4245;42.120;24.732;2023-02-28T13:31:03;39.40;;;22.50;;
8415;SDS011;4245;42.120;24.732;2023-02-28T13:36:10;37.77;;;21.40;;
8415;SDS011;4245;42.120;24.732;2023-02-28T13:38:49;35.67;;;21.07;;
8415;SDS011;4245;42.120;24.732;2023-02-28T13:44:17;36.07;;;22.07;;
8415;SDS011;4245;42.120;24.732;2023-02-28T13:49:46;38.30;;;21.87;;
8415;SDS011;4245;42.120;24.732;2023-02-28T13:52:15;40.83;;;22.67;;
8415;SDS011;4245;42.120;24.732;2023-02-28T13:54:56;35.53;;;20.50;;
8415;SDS011;4245;42.120;24.732;2023-02-28T13:57:37;38.83;;;21.23;;
8415;SDS011;4245;42.120;24.732;2023-02-28T14:00:22;44.40;;;22.40;;
8415;SDS011;4245;42.120;24.732;2023-02-28T14:06:15;36.13;;;21.50;;
8415;SDS011;4245;42.120;24.732;2023-02-28T14:08:52;36.30;;;21.57;;
8415;SDS011;4245;42.120;24.732;2023-02-28T14:11:24;37.87;;;21.97;;
8415;SDS011;4245;42.120;24.732;2023-02-28T14:13:56;36.53;;;21.53;;
8415;SDS011;4245;42.120;24.732;2023-02-28T14:16:26;34.67;;;21.37;;
8415;SDS011;4245;42.120;24.732;2023-02-28T14:19:01;32.90;;;21.23;;
8415;SDS011;4245;42.120;24.732;2023-02-28T14:21:36;33.70;;;19.43;;
8415;SDS011;4245;42.120;24.732;2023-02-28T14:30:10;33.30;;;20.30;;
8415;SDS011;4245;42.120;24.732;2023-02-28T14:33:01;30.13;;;18.37;;
8415;SDS011;4245;42.120;24.732;2023-02-28T14:35:54;29.37;;;19.17;;
8415;SDS011;4245;42.120;24.732;2023-02-28T14:38:35;28.87;;;18.17;;
8415;SDS011;4245;42.120;24.732;2023-02-28T14:41:12;24.80;;;18.17;;
8415;SDS011;4245;42.120;24.732;2023-02-28T14:43:53;29.73;;;17.87;;
8415;SDS011;4245;42.120;24.732;2023-02-28T14:46:22;26.43;;;17.87;;
8415;SDS011;4245;42.120;24.732;2023-02-28T14:48:55;27.27;;;16.50;;
8415;SDS011;4245;42.120;24.732;2023-02-28T14:51:22;29.13;;;17.57;;
8415;SDS011;4245;42.120;24.732;2023-02-28T14:53:52;26.43;;;16.83;;
8415;SDS011;4245;42.120;24.732;2023-02-28T14:56:25;26.87;;;16.97;;
8415;SDS011;4245;42.120;24.732;2023-02-28T14:58:56;33.23;;;17.37;;
8415;SDS011;4245;42.120;24.732;2023-02-28T15:01:24;29.20;;;18.67;;
8415;SDS011;4245;42.120;24.732;2023-02-28T15:04:00;27.83;;;18.00;;
8415;SDS011;4245;42.120;24.732;2023-02-28T15:06:29;28.80;;;17.93;;
8415;SDS011;4245;42.120;24.732;2023-02-28T15:09:09;25.57;;;17.57;;
8415;SDS011;4245;42.120;24.732;2023-02-28T15:11:37;30.13;;;17.33;;
8415;SDS011;4245;42.120;24.732;2023-02-28T15:14:05;27.07;;;17.73;;
8415;SDS011;4245;42.120;24.732;2023-02-28T15:16:34;33.83;;;18.03;;
8415;SDS011;4245;42.120;24.732;2023-02-28T15:19:06;27.27;;;17.40;;
8415;SDS011;4245;42.120;24.732;2023-02-28T15:21:41;27.87;;;17.80;;
8415;SDS011;4245;42.120;24.732;2023-02-28T15:24:11;29.17;;;18.30;;
8415;SDS011;4245;42.120;24.732;2023-02-28T15:26:50;28.77;;;17.90;;
8415;SDS011;4245;42.120;24.732;2023-02-28T15:29:20;24.23;;;17.40;;
8415;SDS011;4245;42.120;24.732;2023-02-28T15:31:49;29.03;;;18.07;;
8415;SDS011;4245;42.120;24.732;2023-02-28T15:34:19;33.00;;;18.43;;
8415;SDS011;4245;42.120;24.732;2023-02-28T15:36:48;26.53;;;18.13;;